<?xml version="1.0" encoding="UTF-8" standalone="no" ?>
<gpx xmlns="http://www.topografix.com/GPX/1/1" xmlns:xsi="http://www.w3.org/2001/XMLSchema-instance" xsi:schemaLocation="http://www.topografix.com/GPX/1/1 http://www.topografix.com/GPX/1/1/gpx.xsd" version="1.1" creator="VisuGPX - https://www.visugpx.com">
  <metadata>
    <name>Express segréenne 10</name>
  </metadata>
  <trk>
    <name><![CDATA[10 km La Segréenne Express-20855964]]></name>
    <extensions>
      <line xmlns="http://www.topografix.com/GPX/gpx_style/0/2">
        <color>0000FF</color>
        <width>4</width>
      </line>
    </extensions>
    <trkseg>
      <trkpt lat="47.68869" lon="-0.88968">
        <ele>46</ele>
        <time>2025-05-11T14:24:10Z</time>
      </trkpt>
      <trkpt lat="47.68629" lon="-0.88506">
        <ele>50</ele>
        <time>2025-05-11T14:26:21Z</time>
      </trkpt>
      <trkpt lat="47.68604" lon="-0.88494">
        <ele>51</ele>
        <time>2025-05-11T14:26:30Z</time>
      </trkpt>
      <trkpt lat="47.68595" lon="-0.88479">
        <ele>52</ele>
        <time>2025-05-11T14:26:34Z</time>
      </trkpt>
      <trkpt lat="47.68596" lon="-0.88479">
        <ele>52</ele>
        <time>2025-05-11T14:26:35Z</time>
      </trkpt>
      <trkpt lat="47.68585" lon="-0.88418">
        <ele>52</ele>
        <time>2025-05-11T14:26:49Z</time>
      </trkpt>
      <trkpt lat="47.68302" lon="-0.87861">
        <ele>45</ele>
        <time>2025-05-11T14:29:26Z</time>
      </trkpt>
      <trkpt lat="47.68312" lon="-0.87896">
        <ele>46</ele>
        <time>2025-05-11T14:29:34Z</time>
      </trkpt>
      <trkpt lat="47.68583" lon="-0.8842">
        <ele>52</ele>
        <time>2025-05-11T14:32:03Z</time>
      </trkpt>
      <trkpt lat="47.68588" lon="-0.88466">
        <ele>52</ele>
        <time>2025-05-11T14:32:13Z</time>
      </trkpt>
      <trkpt lat="47.68578" lon="-0.88488">
        <ele>52</ele>
        <time>2025-05-11T14:32:19Z</time>
      </trkpt>
      <trkpt lat="47.68576" lon="-0.88506">
        <ele>52</ele>
        <time>2025-05-11T14:32:23Z</time>
      </trkpt>
      <trkpt lat="47.68556" lon="-0.88542">
        <ele>51</ele>
        <time>2025-05-11T14:32:34Z</time>
      </trkpt>
      <trkpt lat="47.6855" lon="-0.88576">
        <ele>51</ele>
        <time>2025-05-11T14:32:41Z</time>
      </trkpt>
      <trkpt lat="47.68534" lon="-0.88929">
        <ele>48</ele>
        <time>2025-05-11T14:34:01Z</time>
      </trkpt>
      <trkpt lat="47.6854" lon="-0.88987">
        <ele>47</ele>
        <time>2025-05-11T14:34:14Z</time>
      </trkpt>
      <trkpt lat="47.68559" lon="-0.8902">
        <ele>47</ele>
        <time>2025-05-11T14:34:24Z</time>
      </trkpt>
      <trkpt lat="47.68598" lon="-0.89063">
        <ele>48</ele>
        <time>2025-05-11T14:34:40Z</time>
      </trkpt>
      <trkpt lat="47.68618" lon="-0.89091">
        <ele>48</ele>
        <time>2025-05-11T14:34:49Z</time>
      </trkpt>
      <trkpt lat="47.68624" lon="-0.89123">
        <ele>48</ele>
        <time>2025-05-11T14:34:57Z</time>
      </trkpt>
      <trkpt lat="47.68624" lon="-0.8915">
        <ele>48</ele>
        <time>2025-05-11T14:35:03Z</time>
      </trkpt>
      <trkpt lat="47.68632" lon="-0.89158">
        <ele>47</ele>
        <time>2025-05-11T14:35:06Z</time>
      </trkpt>
      <trkpt lat="47.68632" lon="-0.89174">
        <ele>47</ele>
        <time>2025-05-11T14:35:10Z</time>
      </trkpt>
      <trkpt lat="47.68624" lon="-0.89181">
        <ele>48</ele>
        <time>2025-05-11T14:35:13Z</time>
      </trkpt>
      <trkpt lat="47.68627" lon="-0.89236">
        <ele>48</ele>
        <time>2025-05-11T14:35:25Z</time>
      </trkpt>
      <trkpt lat="47.68638" lon="-0.89285">
        <ele>47</ele>
        <time>2025-05-11T14:35:37Z</time>
      </trkpt>
      <trkpt lat="47.68663" lon="-0.89358">
        <ele>46</ele>
        <time>2025-05-11T14:35:55Z</time>
      </trkpt>
      <trkpt lat="47.68699" lon="-0.89426">
        <ele>45</ele>
        <time>2025-05-11T14:36:14Z</time>
      </trkpt>
      <trkpt lat="47.68713" lon="-0.89474">
        <ele>45</ele>
        <time>2025-05-11T14:36:26Z</time>
      </trkpt>
      <trkpt lat="47.68737" lon="-0.89465">
        <ele>45</ele>
        <time>2025-05-11T14:36:34Z</time>
      </trkpt>
      <trkpt lat="47.68809" lon="-0.8947">
        <ele>46</ele>
        <time>2025-05-11T14:36:58Z</time>
      </trkpt>
      <trkpt lat="47.68873" lon="-0.89459">
        <ele>44</ele>
        <time>2025-05-11T14:37:20Z</time>
      </trkpt>
      <trkpt lat="47.68956" lon="-0.89369">
        <ele>42</ele>
        <time>2025-05-11T14:37:54Z</time>
      </trkpt>
      <trkpt lat="47.68961" lon="-0.8936">
        <ele>42</ele>
        <time>2025-05-11T14:37:57Z</time>
      </trkpt>
      <trkpt lat="47.68959" lon="-0.89345">
        <ele>42</ele>
        <time>2025-05-11T14:38:00Z</time>
      </trkpt>
      <trkpt lat="47.68876" lon="-0.89183">
        <ele>45</ele>
        <time>2025-05-11T14:38:46Z</time>
      </trkpt>
      <trkpt lat="47.68877" lon="-0.89157">
        <ele>46</ele>
        <time>2025-05-11T14:38:52Z</time>
      </trkpt>
      <trkpt lat="47.68922" lon="-0.8912">
        <ele>46</ele>
        <time>2025-05-11T14:39:09Z</time>
      </trkpt>
      <trkpt lat="47.68929" lon="-0.89106">
        <ele>47</ele>
        <time>2025-05-11T14:39:13Z</time>
      </trkpt>
      <trkpt lat="47.68925" lon="-0.89077">
        <ele>47</ele>
        <time>2025-05-11T14:39:20Z</time>
      </trkpt>
      <trkpt lat="47.68629" lon="-0.88506">
        <ele>50</ele>
        <time>2025-05-11T14:42:01Z</time>
      </trkpt>
      <trkpt lat="47.68604" lon="-0.88494">
        <ele>51</ele>
        <time>2025-05-11T14:42:10Z</time>
      </trkpt>
      <trkpt lat="47.68595" lon="-0.88479">
        <ele>52</ele>
        <time>2025-05-11T14:42:15Z</time>
      </trkpt>
      <trkpt lat="47.68585" lon="-0.88418">
        <ele>52</ele>
        <time>2025-05-11T14:42:29Z</time>
      </trkpt>
      <trkpt lat="47.68302" lon="-0.87861">
        <ele>45</ele>
        <time>2025-05-11T14:45:06Z</time>
      </trkpt>
      <trkpt lat="47.68311" lon="-0.87895">
        <ele>46</ele>
        <time>2025-05-11T14:45:14Z</time>
      </trkpt>
      <trkpt lat="47.68583" lon="-0.8842">
        <ele>52</ele>
        <time>2025-05-11T14:47:43Z</time>
      </trkpt>
      <trkpt lat="47.68588" lon="-0.88466">
        <ele>52</ele>
        <time>2025-05-11T14:47:53Z</time>
      </trkpt>
      <trkpt lat="47.68578" lon="-0.88488">
        <ele>52</ele>
        <time>2025-05-11T14:47:59Z</time>
      </trkpt>
      <trkpt lat="47.68575" lon="-0.88506">
        <ele>52</ele>
        <time>2025-05-11T14:48:03Z</time>
      </trkpt>
      <trkpt lat="47.68556" lon="-0.88541">
        <ele>51</ele>
        <time>2025-05-11T14:48:13Z</time>
      </trkpt>
      <trkpt lat="47.6855" lon="-0.88576">
        <ele>51</ele>
        <time>2025-05-11T14:48:21Z</time>
      </trkpt>
      <trkpt lat="47.68533" lon="-0.88928">
        <ele>48</ele>
        <time>2025-05-11T14:49:41Z</time>
      </trkpt>
      <trkpt lat="47.6854" lon="-0.88988">
        <ele>47</ele>
        <time>2025-05-11T14:49:54Z</time>
      </trkpt>
      <trkpt lat="47.68617" lon="-0.89091">
        <ele>48</ele>
        <time>2025-05-11T14:50:29Z</time>
      </trkpt>
      <trkpt lat="47.68624" lon="-0.89123">
        <ele>48</ele>
        <time>2025-05-11T14:50:36Z</time>
      </trkpt>
      <trkpt lat="47.68624" lon="-0.8915">
        <ele>48</ele>
        <time>2025-05-11T14:50:42Z</time>
      </trkpt>
      <trkpt lat="47.68624" lon="-0.8915">
        <ele>48</ele>
        <time>2025-05-11T14:50:42Z</time>
      </trkpt>
      <trkpt lat="47.68633" lon="-0.89158">
        <ele>47</ele>
        <time>2025-05-11T14:50:46Z</time>
      </trkpt>
      <trkpt lat="47.68633" lon="-0.89173">
        <ele>47</ele>
        <time>2025-05-11T14:50:49Z</time>
      </trkpt>
      <trkpt lat="47.68625" lon="-0.89181">
        <ele>47</ele>
        <time>2025-05-11T14:50:53Z</time>
      </trkpt>
      <trkpt lat="47.68627" lon="-0.89236">
        <ele>48</ele>
        <time>2025-05-11T14:51:05Z</time>
      </trkpt>
      <trkpt lat="47.68638" lon="-0.89284">
        <ele>47</ele>
        <time>2025-05-11T14:51:16Z</time>
      </trkpt>
      <trkpt lat="47.68663" lon="-0.89359">
        <ele>46</ele>
        <time>2025-05-11T14:51:35Z</time>
      </trkpt>
      <trkpt lat="47.68699" lon="-0.89427">
        <ele>45</ele>
        <time>2025-05-11T14:51:55Z</time>
      </trkpt>
      <trkpt lat="47.68714" lon="-0.89475">
        <ele>45</ele>
        <time>2025-05-11T14:52:06Z</time>
      </trkpt>
      <trkpt lat="47.68737" lon="-0.89464">
        <ele>45</ele>
        <time>2025-05-11T14:52:15Z</time>
      </trkpt>
      <trkpt lat="47.68737" lon="-0.89465">
        <ele>45</ele>
        <time>2025-05-11T14:52:15Z</time>
      </trkpt>
      <trkpt lat="47.68809" lon="-0.89469">
        <ele>46</ele>
        <time>2025-05-11T14:52:39Z</time>
      </trkpt>
      <trkpt lat="47.68873" lon="-0.89459">
        <ele>44</ele>
        <time>2025-05-11T14:53:00Z</time>
      </trkpt>
      <trkpt lat="47.68955" lon="-0.8937">
        <ele>42</ele>
        <time>2025-05-11T14:53:34Z</time>
      </trkpt>
      <trkpt lat="47.68961" lon="-0.89361">
        <ele>42</ele>
        <time>2025-05-11T14:53:37Z</time>
      </trkpt>
      <trkpt lat="47.68959" lon="-0.89345">
        <ele>42</ele>
        <time>2025-05-11T14:53:41Z</time>
      </trkpt>
      <trkpt lat="47.68876" lon="-0.89183">
        <ele>45</ele>
        <time>2025-05-11T14:54:26Z</time>
      </trkpt>
      <trkpt lat="47.68877" lon="-0.89157">
        <ele>46</ele>
        <time>2025-05-11T14:54:32Z</time>
      </trkpt>
      <trkpt lat="47.68922" lon="-0.8912">
        <ele>46</ele>
        <time>2025-05-11T14:54:49Z</time>
      </trkpt>
      <trkpt lat="47.68928" lon="-0.89106">
        <ele>47</ele>
        <time>2025-05-11T14:54:53Z</time>
      </trkpt>
      <trkpt lat="47.68925" lon="-0.89077">
        <ele>47</ele>
        <time>2025-05-11T14:55:00Z</time>
      </trkpt>
      <trkpt lat="47.68629" lon="-0.88506">
        <ele>50</ele>
        <time>2025-05-11T14:57:42Z</time>
      </trkpt>
      <trkpt lat="47.68605" lon="-0.88494">
        <ele>51</ele>
        <time>2025-05-11T14:57:50Z</time>
      </trkpt>
      <trkpt lat="47.68595" lon="-0.88479">
        <ele>52</ele>
        <time>2025-05-11T14:57:55Z</time>
      </trkpt>
      <trkpt lat="47.68585" lon="-0.88418">
        <ele>52</ele>
        <time>2025-05-11T14:58:09Z</time>
      </trkpt>
      <trkpt lat="47.68301" lon="-0.87861">
        <ele>45</ele>
        <time>2025-05-11T15:00:46Z</time>
      </trkpt>
      <trkpt lat="47.68311" lon="-0.87895">
        <ele>46</ele>
        <time>2025-05-11T15:00:54Z</time>
      </trkpt>
      <trkpt lat="47.68583" lon="-0.8842">
        <ele>52</ele>
        <time>2025-05-11T15:03:23Z</time>
      </trkpt>
      <trkpt lat="47.68588" lon="-0.88466">
        <ele>52</ele>
        <time>2025-05-11T15:03:33Z</time>
      </trkpt>
      <trkpt lat="47.68579" lon="-0.88488">
        <ele>52</ele>
        <time>2025-05-11T15:03:39Z</time>
      </trkpt>
      <trkpt lat="47.68575" lon="-0.88507">
        <ele>52</ele>
        <time>2025-05-11T15:03:44Z</time>
      </trkpt>
      <trkpt lat="47.68555" lon="-0.88543">
        <ele>51</ele>
        <time>2025-05-11T15:03:54Z</time>
      </trkpt>
      <trkpt lat="47.6855" lon="-0.88576">
        <ele>51</ele>
        <time>2025-05-11T15:04:02Z</time>
      </trkpt>
      <trkpt lat="47.68534" lon="-0.88928">
        <ele>48</ele>
        <time>2025-05-11T15:05:21Z</time>
      </trkpt>
      <trkpt lat="47.68541" lon="-0.88986">
        <ele>47</ele>
        <time>2025-05-11T15:05:34Z</time>
      </trkpt>
      <trkpt lat="47.68559" lon="-0.8902">
        <ele>47</ele>
        <time>2025-05-11T15:05:44Z</time>
      </trkpt>
      <trkpt lat="47.68598" lon="-0.89063">
        <ele>48</ele>
        <time>2025-05-11T15:06:00Z</time>
      </trkpt>
      <trkpt lat="47.68617" lon="-0.8909">
        <ele>48</ele>
        <time>2025-05-11T15:06:09Z</time>
      </trkpt>
      <trkpt lat="47.68624" lon="-0.89123">
        <ele>48</ele>
        <time>2025-05-11T15:06:17Z</time>
      </trkpt>
      <trkpt lat="47.68623" lon="-0.8915">
        <ele>48</ele>
        <time>2025-05-11T15:06:23Z</time>
      </trkpt>
      <trkpt lat="47.68633" lon="-0.89158">
        <ele>47</ele>
        <time>2025-05-11T15:06:26Z</time>
      </trkpt>
      <trkpt lat="47.68633" lon="-0.89174">
        <ele>47</ele>
        <time>2025-05-11T15:06:30Z</time>
      </trkpt>
      <trkpt lat="47.68624" lon="-0.89181">
        <ele>48</ele>
        <time>2025-05-11T15:06:33Z</time>
      </trkpt>
      <trkpt lat="47.68627" lon="-0.89236">
        <ele>48</ele>
        <time>2025-05-11T15:06:46Z</time>
      </trkpt>
      <trkpt lat="47.68638" lon="-0.89285">
        <ele>47</ele>
        <time>2025-05-11T15:06:57Z</time>
      </trkpt>
      <trkpt lat="47.68663" lon="-0.89358">
        <ele>46</ele>
        <time>2025-05-11T15:07:16Z</time>
      </trkpt>
      <trkpt lat="47.68699" lon="-0.89426">
        <ele>45</ele>
        <time>2025-05-11T15:07:35Z</time>
      </trkpt>
      <trkpt lat="47.68714" lon="-0.89474">
        <ele>45</ele>
        <time>2025-05-11T15:07:47Z</time>
      </trkpt>
      <trkpt lat="47.68738" lon="-0.89464">
        <ele>45</ele>
        <time>2025-05-11T15:07:55Z</time>
      </trkpt>
      <trkpt lat="47.68809" lon="-0.8947">
        <ele>46</ele>
        <time>2025-05-11T15:08:19Z</time>
      </trkpt>
      <trkpt lat="47.68873" lon="-0.89459">
        <ele>44</ele>
        <time>2025-05-11T15:08:41Z</time>
      </trkpt>
      <trkpt lat="47.68956" lon="-0.8937">
        <ele>42</ele>
        <time>2025-05-11T15:09:15Z</time>
      </trkpt>
      <trkpt lat="47.68961" lon="-0.8936">
        <ele>42</ele>
        <time>2025-05-11T15:09:18Z</time>
      </trkpt>
      <trkpt lat="47.68959" lon="-0.89346">
        <ele>42</ele>
        <time>2025-05-11T15:09:21Z</time>
      </trkpt>
      <trkpt lat="47.68876" lon="-0.89183">
        <ele>45</ele>
        <time>2025-05-11T15:10:07Z</time>
      </trkpt>
      <trkpt lat="47.68877" lon="-0.89157">
        <ele>46</ele>
        <time>2025-05-11T15:10:13Z</time>
      </trkpt>
      <trkpt lat="47.68922" lon="-0.89119">
        <ele>46</ele>
        <time>2025-05-11T15:10:30Z</time>
      </trkpt>
      <trkpt lat="47.68929" lon="-0.89106">
        <ele>47</ele>
        <time>2025-05-11T15:10:34Z</time>
      </trkpt>
      <trkpt lat="47.68925" lon="-0.89077">
        <ele>47</ele>
        <time>2025-05-11T15:10:40Z</time>
      </trkpt>
      <trkpt lat="47.68782" lon="-0.88801">
        <ele>47</ele>
        <time>2025-05-11T15:11:58Z</time>
      </trkpt>
      <trkpt lat="47.68864" lon="-0.88708">
        <ele>46</ele>
        <time>2025-05-11T15:12:33Z</time>
      </trkpt>
      <trkpt lat="47.68872" lon="-0.88725">
        <ele>46</ele>
        <time>2025-05-11T15:12:38Z</time>
      </trkpt>
      <trkpt lat="47.68892" lon="-0.8873">
        <ele>46</ele>
        <time>2025-05-11T15:12:44Z</time>
      </trkpt>
      <trkpt lat="47.68912" lon="-0.88735">
        <ele>46</ele>
        <time>2025-05-11T15:12:51Z</time>
      </trkpt>
      <trkpt lat="47.68925" lon="-0.88748">
        <ele>46</ele>
        <time>2025-05-11T15:12:56Z</time>
      </trkpt>
      <trkpt lat="47.68917" lon="-0.88765">
        <ele>46</ele>
        <time>2025-05-11T15:13:01Z</time>
      </trkpt>
      <trkpt lat="47.6897" lon="-0.88864">
        <ele>46</ele>
        <time>2025-05-11T15:13:29Z</time>
      </trkpt>
      <trkpt lat="47.68974" lon="-0.88893">
        <ele>46</ele>
        <time>2025-05-11T15:13:36Z</time>
      </trkpt>
      <trkpt lat="47.68965" lon="-0.88918">
        <ele>47</ele>
        <time>2025-05-11T15:13:42Z</time>
      </trkpt>
      <trkpt lat="47.68951" lon="-0.88926">
        <ele>46</ele>
        <time>2025-05-11T15:13:47Z</time>
      </trkpt>
      <trkpt lat="47.68932" lon="-0.8892">
        <ele>46</ele>
        <time>2025-05-11T15:13:54Z</time>
      </trkpt>
      <trkpt lat="47.68898" lon="-0.88861">
        <ele>46</ele>
        <time>2025-05-11T15:14:11Z</time>
      </trkpt>
    </trkseg>
  </trk>
</gpx>